createdAt,value
2023-10-13T00:02:07.388Z,99962.28
2023-10-13T00:04:37.158Z,99967.03
2023-10-13T00:07:05.621Z,99966.41
2023-10-13T00:09:33.661Z,99975.69
2023-10-13T00:12:01.521Z,99980.59
2023-10-13T00:14:34.939Z,99983.59
2023-10-13T00:17:07.112Z,99982.19
2023-10-13T00:19:39.188Z,99988.28
2023-10-13T00:22:10.714Z,99984.81
2023-10-13T00:24:43.951Z,99971.53
2023-10-13T00:27:30.879Z,99974.69
2023-10-13T00:30:17.888Z,99973.97
2023-10-13T00:32:47.676Z,99976.66
2023-10-13T00:35:30.149Z,99967.16
2023-10-13T00:38:05.382Z,99964.84
2023-10-13T00:40:33.329Z,99976.25
2023-10-13T00:43:20.209Z,99968.66
2023-10-13T00:46:04.005Z,99972.16
2023-10-13T00:48:43.269Z,99972.97
2023-10-13T00:51:20.056Z,99973.78
2023-10-13T00:53:48.971Z,99975.31
2023-10-13T00:56:24.801Z,99974.22
2023-10-13T00:58:53.655Z,99968.84
2023-10-13T01:01:30.027Z,99968.50
2023-10-13T01:04:00.330Z,99969.16
2023-10-13T01:06:28.331Z,99971.19
2023-10-13T01:09:00.963Z,99962.25
2023-10-13T01:11:30.955Z,99963.47
2023-10-13T01:13:58.448Z,99959.31
2023-10-13T01:16:27.962Z,99948.75
2023-10-13T01:19:00.736Z,99948.97
2023-10-13T01:21:28.972Z,99957.66
2023-10-13T01:23:56.675Z,99954.31
2023-10-13T01:26:28.237Z,99953.00
2023-10-13T01:28:58.727Z,99949.94
2023-10-13T01:31:28.762Z,99958.78
2023-10-13T01:33:59.819Z,99954.87
2023-10-13T01:36:27.860Z,99954.94
2023-10-13T01:38:55.273Z,99962.94
2023-10-13T01:41:22.885Z,99954.69
2023-10-13T01:43:50.545Z,99957.91
2023-10-13T01:46:20.711Z,99958.00
2023-10-13T01:48:48.317Z,99953.63
2023-10-13T01:51:16.085Z,99957.97
2023-10-13T01:53:43.631Z,99961.66
2023-10-13T01:56:15.296Z,99962.72
2023-10-13T01:58:43.586Z,99973.59
2023-10-13T02:01:14.803Z,99974.88
2023-10-13T02:03:49.804Z,99973.19
2023-10-13T02:06:25.070Z,99968.69
2023-10-13T02:08:58.137Z,99970.75
2023-10-13T02:11:25.604Z,99956.75
2023-10-13T02:13:55.226Z,99959.16
2023-10-13T02:16:23.658Z,99962.97
2023-10-13T02:18:54.043Z,99955.34
2023-10-13T02:21:22.296Z,99966.31
2023-10-13T02:24:01.158Z,99962.81
2023-10-13T02:26:39.791Z,99965.88
2023-10-13T02:29:19.272Z,99952.19
2023-10-13T02:31:56.958Z,99958.25
2023-10-13T02:34:25.694Z,99964.81
2023-10-13T02:36:55.159Z,99957.28
2023-10-13T02:39:28.749Z,99966.09
2023-10-13T02:41:57.383Z,99972.72
2023-10-13T02:44:28.648Z,99975.25
2023-10-13T02:47:00.216Z,99973.44
2023-10-13T02:49:28.299Z,99970.66
2023-10-13T02:51:57.127Z,99975.41
2023-10-13T02:54:31.356Z,99980.56
2023-10-13T02:57:00.358Z,99986.81
2023-10-13T02:59:47.865Z,99994.31
2023-10-13T03:02:19.286Z,99997.44
2023-10-13T03:05:00.797Z,100004.28
2023-10-13T03:07:31.657Z,99998.34
2023-10-13T03:10:01.763Z,100005.56
2023-10-13T03:12:34.419Z,99995.31
2023-10-13T03:15:18.420Z,99997.84
2023-10-13T03:17:46.555Z,99997.22
2023-10-13T03:20:16.471Z,99985.59
2023-10-13T03:22:46.347Z,99988.84
2023-10-13T03:25:24.151Z,99987.91
2023-10-13T03:27:52.387Z,99980.25
2023-10-13T03:30:21.918Z,99967.94
2023-10-13T03:32:56.423Z,99971.19
2023-10-13T03:35:32.585Z,99963.63
2023-10-13T03:38:00.061Z,99960.59
2023-10-13T03:40:27.692Z,99951.53
2023-10-13T03:43:06.095Z,99943.75
2023-10-13T03:45:39.963Z,99941.81
2023-10-13T03:48:10.867Z,99930.88
2023-10-13T03:50:47.223Z,99937.09
2023-10-13T03:53:14.724Z,99939.16
2023-10-13T03:55:49.126Z,99941.56
2023-10-13T03:58:18.398Z,99938.63
2023-10-13T04:00:46.281Z,99932.19
2023-10-13T04:03:19.207Z,99925.91
2023-10-13T04:06:02.104Z,99922.78
2023-10-13T04:08:30.017Z,99913.50
2023-10-13T04:10:59.453Z,99909.00
2023-10-13T04:13:45.751Z,99932.41
2023-10-13T04:16:35.986Z,99923.50
2023-10-13T04:19:03.995Z,99917.50
2023-10-13T04:21:41.304Z,99921.72
2023-10-13T04:24:18.414Z,99934.22
2023-10-13T04:27:04.911Z,99924.59
2023-10-13T04:29:52.885Z,99925.50
2023-10-13T04:32:30.051Z,99917.97
2023-10-13T04:35:09.546Z,99929.22
2023-10-13T04:38:02.342Z,99926.75
2023-10-13T04:40:36.587Z,99927.00
2023-10-13T04:43:27.328Z,99918.91
2023-10-13T04:45:59.605Z,99921.19
2023-10-13T04:48:27.345Z,99921.88
2023-10-13T04:51:20.167Z,99932.28
2023-10-13T04:54:06.897Z,99932.47
2023-10-13T04:56:43.176Z,99945.34
2023-10-13T04:59:19.574Z,99933.47
2023-10-13T05:02:06.183Z,99936.53
2023-10-13T05:04:58.543Z,99939.84
2023-10-13T05:07:44.900Z,99948.53
2023-10-13T05:10:31.532Z,99949.88
2023-10-13T05:13:17.890Z,99952.28
2023-10-13T05:16:06.615Z,99952.53
2023-10-13T05:18:52.870Z,99951.28
2023-10-13T05:21:39.197Z,99963.47
2023-10-13T05:24:25.418Z,99972.34
2023-10-13T05:27:12.029Z,99981.22
2023-10-13T05:29:58.529Z,99989.88
2023-10-13T05:32:45.278Z,99999.19
2023-10-13T05:35:31.997Z,99990.47
2023-10-13T05:38:18.354Z,99995.34
2023-10-13T05:41:15.681Z,100005.97
2023-10-13T05:44:04.144Z,100008.47
2023-10-13T05:46:41.056Z,100006.09
2023-10-13T05:49:13.057Z,100011.72
2023-10-13T05:51:40.480Z,100024.81
2023-10-13T05:54:16.782Z,100023.87
2023-10-13T05:57:08.202Z,100023.22
2023-10-13T05:59:55.043Z,100035.38
2023-10-13T06:02:42.549Z,100032.59
2023-10-13T06:05:30.438Z,100026.81
2023-10-13T06:08:16.835Z,100029.63
2023-10-13T06:11:03.739Z,100034.75
2023-10-13T06:13:49.949Z,100043.84
2023-10-13T06:16:36.356Z,100042.47
2023-10-13T06:19:22.824Z,100029.44
2023-10-13T06:22:09.916Z,100036.50
2023-10-13T06:24:56.008Z,100038.06
2023-10-13T06:27:42.594Z,100045.22
2023-10-13T06:30:10.333Z,100044.03
2023-10-13T06:32:41.091Z,100050.47
2023-10-13T06:35:09.121Z,100054.91
2023-10-13T06:37:43.332Z,100053.19
2023-10-13T06:40:27.522Z,100062.88
2023-10-13T06:42:56.353Z,100062.41
2023-10-13T06:45:29.261Z,100062.47
2023-10-13T06:47:59.832Z,100056.19
2023-10-13T06:50:29.219Z,100058.72
2023-10-13T06:52:56.689Z,100060.75
2023-10-13T06:55:29.060Z,100065.25
2023-10-13T06:58:01.335Z,100076.94
2023-10-13T07:00:31.198Z,100082.47
2023-10-13T07:03:10.160Z,100083.38
2023-10-13T07:05:42.648Z,100093.44
2023-10-13T07:08:15.050Z,100083.53
2023-10-13T07:11:18.496Z,100089.09
2023-10-13T07:13:52.260Z,100089.91
2023-10-13T07:16:30.226Z,100086.00
2023-10-13T07:19:05.515Z,100090.41
2023-10-13T07:21:34.712Z,100085.63
2023-10-13T07:24:09.536Z,100086.97
2023-10-13T07:26:48.573Z,100088.31
2023-10-13T07:29:16.356Z,100096.84
2023-10-13T07:31:46.906Z,100095.50
2023-10-13T07:34:22.067Z,100085.88
2023-10-13T07:36:50.882Z,100084.75
2023-10-13T07:39:35.095Z,100088.69
2023-10-13T07:42:20.731Z,100089.88
2023-10-13T07:44:48.402Z,100090.84
2023-10-13T07:47:16.464Z,100087.59
2023-10-13T07:49:44.523Z,100082.19
2023-10-13T07:52:21.941Z,100078.69
2023-10-13T07:55:00.898Z,100083.38
2023-10-13T07:57:31.010Z,100082.56
2023-10-13T08:00:26.794Z,100085.59
2023-10-13T08:03:10.437Z,100089.75
2023-10-13T08:05:43.776Z,100085.28
2023-10-13T08:08:15.394Z,100079.66
2023-10-13T08:10:46.740Z,100080.13
2023-10-13T08:13:14.836Z,100077.41
2023-10-13T08:15:48.783Z,100077.66
2023-10-13T08:18:26.065Z,100076.12
2023-10-13T08:20:55.262Z,100057.84
2023-10-13T08:23:39.267Z,100065.09
2023-10-13T08:26:29.208Z,100058.38
2023-10-13T08:29:20.391Z,100055.91
2023-10-13T08:32:11.026Z,100054.44
2023-10-13T08:34:44.722Z,100061.28
2023-10-13T08:37:24.363Z,100064.72
2023-10-13T08:40:06.831Z,100066.94
2023-10-13T08:43:04.041Z,100075.84
2023-10-13T08:45:31.845Z,100073.03
2023-10-13T08:48:09.232Z,100070.06
2023-10-13T08:50:49.700Z,100072.75
2023-10-13T08:53:30.140Z,100070.19
2023-10-13T08:56:09.993Z,100077.84
2023-10-13T08:58:56.940Z,100085.94
2023-10-13T09:01:44.458Z,100082.22
2023-10-13T09:04:19.081Z,100083.31
2023-10-13T09:06:49.229Z,100083.88
2023-10-13T09:09:36.130Z,100078.56
2023-10-13T09:12:10.906Z,100079.53
2023-10-13T09:14:43.683Z,100065.84
2023-10-13T09:17:31.780Z,100066.28
2023-10-13T09:20:25.451Z,100064.31
2023-10-13T09:23:03.443Z,100063.28
2023-10-13T09:25:35.899Z,100069.84
2023-10-13T09:28:18.824Z,100064.50
2023-10-13T09:30:53.834Z,100064.56
2023-10-13T09:33:29.729Z,100062.94
2023-10-13T09:36:00.428Z,100061.09
2023-10-13T09:38:29.452Z,100067.00
2023-10-13T09:41:02.999Z,100063.00
2023-10-13T09:43:31.703Z,100076.38
2023-10-13T09:46:03.577Z,100069.47
2023-10-13T09:48:37.333Z,100066.88
2023-10-13T09:51:08.012Z,100068.03
2023-10-13T09:53:36.008Z,100067.97
2023-10-13T09:56:20.280Z,100068.91
2023-10-13T09:58:52.245Z,100064.19
2023-10-13T10:01:32.406Z,100058.84
2023-10-13T10:04:12.540Z,100051.03
2023-10-13T10:06:47.419Z,100048.28
2023-10-13T10:09:15.266Z,100056.59
2023-10-13T10:12:10.733Z,100045.59
2023-10-13T10:14:59.769Z,100037.88
2023-10-13T10:17:30.858Z,100043.34
2023-10-13T10:19:58.804Z,100045.88
2023-10-13T10:22:34.718Z,100038.31
2023-10-13T10:25:03.851Z,100042.88
2023-10-13T10:27:32.564Z,100048.47
2023-10-13T10:30:00.215Z,100042.41
2023-10-13T10:32:43.250Z,100037.72
2023-10-13T10:35:21.842Z,100033.75
2023-10-13T10:37:49.755Z,100027.03
2023-10-13T10:40:43.144Z,100018.88
2023-10-13T10:43:29.416Z,100012.72
2023-10-13T10:46:00.779Z,100004.53
2023-10-13T10:48:35.960Z,100006.06
2023-10-13T10:51:22.232Z,99991.28
2023-10-13T10:53:51.556Z,99997.78
2023-10-13T10:56:35.842Z,99999.31
2023-10-13T10:59:05.607Z,99998.00
2023-10-13T11:01:39.711Z,99991.59
2023-10-13T11:04:34.253Z,99991.22
2023-10-13T11:07:01.842Z,99994.88
2023-10-13T11:09:38.058Z,99993.59
2023-10-13T11:12:05.686Z,99993.09
2023-10-13T11:14:33.299Z,99987.81
2023-10-13T11:17:15.190Z,99979.69
2023-10-13T11:19:43.677Z,99976.47
2023-10-13T11:22:35.191Z,99965.88
2023-10-13T11:25:12.763Z,99962.03
2023-10-13T11:27:52.404Z,99968.63
2023-10-13T11:30:26.641Z,99964.28
2023-10-13T11:33:07.280Z,99961.59
2023-10-13T11:35:55.837Z,99961.00
2023-10-13T11:38:28.192Z,99952.25
2023-10-13T11:41:05.612Z,99952.75
2023-10-13T11:43:52.219Z,99957.72
2023-10-13T11:46:37.857Z,99942.88
2023-10-13T11:49:17.100Z,99941.16
2023-10-13T11:51:49.064Z,99948.00
2023-10-13T11:54:16.963Z,99939.75
2023-10-13T11:56:47.682Z,99937.69
2023-10-13T11:59:25.771Z,99937.84
2023-10-13T12:02:12.274Z,99931.84
2023-10-13T12:04:58.026Z,99934.25
2023-10-13T12:07:28.481Z,99936.44
2023-10-13T12:09:56.330Z,99929.62
2023-10-13T12:12:27.156Z,99926.66
2023-10-13T12:14:57.607Z,99929.16
2023-10-13T12:17:29.543Z,99930.03
2023-10-13T12:19:58.418Z,99933.31
2023-10-13T12:22:46.803Z,99922.44
2023-10-13T12:25:26.982Z,99923.69
2023-10-13T12:27:58.876Z,99917.66
2023-10-13T12:30:45.274Z,99914.03
2023-10-13T12:33:13.078Z,99911.59
2023-10-13T12:35:59.976Z,99916.75
2023-10-13T12:38:46.466Z,99911.44
2023-10-13T12:41:35.890Z,99915.03
2023-10-13T12:44:24.010Z,99907.72
2023-10-13T12:47:13.396Z,99915.28
2023-10-13T12:49:45.175Z,99908.53
2023-10-13T12:52:20.753Z,99906.41
2023-10-13T12:54:48.792Z,99907.41
2023-10-13T12:57:16.869Z,99897.38
2023-10-13T12:59:44.536Z,99902.56
2023-10-13T13:02:16.661Z,99903.69
2023-10-13T13:04:49.372Z,99890.06
2023-10-13T13:07:17.163Z,99897.78
2023-10-13T13:09:44.614Z,99893.97
2023-10-13T13:12:14.877Z,99894.75
2023-10-13T13:14:47.081Z,99894.47
2023-10-13T13:17:14.793Z,99891.00
2023-10-13T13:19:43.239Z,99884.72
2023-10-13T13:22:13.144Z,99884.16
2023-10-13T13:24:44.794Z,99880.09
2023-10-13T13:27:16.093Z,99881.44
2023-10-13T13:29:44.649Z,99879.00
2023-10-13T13:32:25.562Z,99891.22
2023-10-13T13:35:06.455Z,99883.62
2023-10-13T13:37:34.034Z,99886.34
2023-10-13T13:40:19.362Z,99882.25
2023-10-13T13:42:46.910Z,99885.00
2023-10-13T13:45:28.338Z,99887.97
2023-10-13T13:47:56.319Z,99886.87
2023-10-13T13:50:31.184Z,99885.25
2023-10-13T13:52:58.923Z,99885.25
2023-10-13T13:55:30.225Z,99880.63
2023-10-13T13:57:57.976Z,99880.63
2023-10-13T14:00:47.446Z,99879.78
2023-10-13T14:03:32.254Z,99874.88
2023-10-13T14:06:00.822Z,99874.34
2023-10-13T14:08:28.600Z,99873.00
2023-10-13T14:11:14.707Z,99871.63
2023-10-13T14:13:50.126Z,99871.06
2023-10-13T14:16:18.276Z,99862.34
2023-10-13T14:18:47.125Z,99868.34
2023-10-13T14:21:20.621Z,99865.59
2023-10-13T14:23:48.738Z,99863.94
2023-10-13T14:26:21.156Z,99857.44
2023-10-13T14:29:07.817Z,99861.72
2023-10-13T14:31:37.602Z,99851.97
2023-10-13T14:34:05.353Z,99852.53
2023-10-13T14:36:35.992Z,99860.09
2023-10-13T14:39:05.703Z,99851.91
2023-10-13T14:41:33.420Z,99845.34
2023-10-13T14:44:06.328Z,99849.94
2023-10-13T14:46:39.697Z,99841.75
2023-10-13T14:49:07.333Z,99843.09
2023-10-13T14:51:40.582Z,99836.56
2023-10-13T14:54:08.046Z,99835.44
2023-10-13T14:56:35.670Z,99840.84
2023-10-13T14:59:06.160Z,99843.50
2023-10-13T15:01:34.012Z,99835.06
2023-10-13T15:04:01.804Z,99840.72
2023-10-13T15:06:32.155Z,99847.19
2023-10-13T15:09:00.514Z,99852.12
2023-10-13T15:11:44.102Z,99841.87
2023-10-13T15:14:14.949Z,99849.91
2023-10-13T15:16:44.408Z,99847.41
2023-10-13T15:19:13.261Z,99850.03
2023-10-13T15:21:44.522Z,99847.25
2023-10-13T15:26:53.829Z,99857.75
2023-10-13T15:29:27.735Z,99856.00
2023-10-13T15:32:01.457Z,99855.34
2023-10-13T15:34:29.553Z,99853.78
2023-10-13T15:36:57.854Z,99850.13
2023-10-13T15:39:25.364Z,99857.34
2023-10-13T15:41:59.323Z,99858.06
2023-10-13T15:44:27.240Z,99852.56
2023-10-13T15:49:29.061Z,99855.78
2023-10-13T15:52:00.209Z,99851.75
2023-10-13T15:54:27.637Z,99852.78
2023-10-13T15:56:57.906Z,99859.44
2023-10-13T15:59:25.564Z,99856.66
2023-10-13T16:01:59.462Z,99856.53
2023-10-13T16:04:27.541Z,99856.63
2023-10-13T16:06:55.142Z,99867.12
2023-10-13T16:09:26.099Z,99857.78
2023-10-13T16:11:54.317Z,99866.78
2023-10-13T16:14:22.611Z,99867.38
2023-10-13T16:16:51.999Z,99869.59
2023-10-13T16:19:23.181Z,99874.38
2023-10-13T16:21:51.978Z,99872.09
2023-10-13T16:26:53.799Z,99873.66
2023-10-13T16:29:21.632Z,99869.69
2023-10-13T16:31:49.117Z,99871.69
2023-10-13T16:34:17.307Z,99866.28
2023-10-13T16:36:45.838Z,99860.69
2023-10-13T16:39:16.385Z,99867.34
2023-10-13T16:41:46.434Z,99867.69
2023-10-13T16:44:14.442Z,99862.50
2023-10-13T16:46:42.064Z,99871.69
2023-10-13T16:49:09.648Z,99866.34
2023-10-13T16:51:37.752Z,99868.31
2023-10-13T16:54:06.075Z,99868.44
2023-10-13T16:56:37.092Z,99873.69
2023-10-13T16:59:08.424Z,99874.00
2023-10-13T17:01:36.523Z,99868.75
2023-10-13T17:04:05.983Z,99872.00
2023-10-13T17:06:35.058Z,99869.41
2023-10-13T17:09:05.172Z,99867.66
2023-10-13T17:11:32.709Z,99869.72
2023-10-13T17:14:00.355Z,99870.59
2023-10-13T17:16:27.797Z,99875.62
2023-10-13T17:18:55.926Z,99861.44
2023-10-13T17:21:29.444Z,99867.78
2023-10-13T17:23:57.586Z,99868.50
2023-10-13T17:26:27.974Z,99868.69
2023-10-13T17:29:03.913Z,99865.31
2023-10-13T17:31:33.575Z,99864.81
2023-10-13T17:34:01.936Z,99866.28
2023-10-13T17:36:30.503Z,99870.87
2023-10-13T17:38:58.298Z,99866.13
2023-10-13T17:41:25.936Z,99858.69
2023-10-13T17:43:54.065Z,99851.03
2023-10-13T17:46:23.944Z,99856.94
2023-10-13T17:48:55.444Z,99863.63
2023-10-13T17:51:24.640Z,99860.97
2023-10-13T17:53:53.882Z,99852.28
2023-10-13T17:56:21.640Z,99846.53
2023-10-13T17:58:52.312Z,99853.94
2023-10-13T18:01:21.126Z,99849.69
2023-10-13T18:03:52.904Z,99841.84
2023-10-13T18:06:21.845Z,99845.12
2023-10-13T18:08:53.400Z,99849.84
2023-10-13T18:11:25.048Z,99847.94
2023-10-13T18:13:52.713Z,99850.66
2023-10-13T18:16:21.110Z,99843.63
2023-10-13T18:18:51.514Z,99845.97
2023-10-13T18:21:22.000Z,99846.66
2023-10-13T18:23:49.806Z,99845.12
2023-10-13T18:26:17.328Z,99849.47
2023-10-13T18:28:44.942Z,99849.72
2023-10-13T18:31:13.066Z,99848.44
2023-10-13T18:33:41.265Z,99848.34
2023-10-13T18:36:16.134Z,99851.25
2023-10-13T18:38:44.722Z,99844.19
2023-10-13T18:41:20.434Z,99851.63
2023-10-13T18:43:48.835Z,99852.69
2023-10-13T18:46:17.779Z,99841.87
2023-10-13T18:48:46.124Z,99841.06
2023-10-13T18:51:20.080Z,99839.75
2023-10-13T18:53:47.867Z,99840.13
2023-10-13T18:56:14.994Z,99845.97
2023-10-13T18:58:49.671Z,99842.22
2023-10-13T19:01:18.805Z,99848.91
2023-10-13T19:03:49.792Z,99846.81
2023-10-13T19:06:17.418Z,99847.50
2023-10-13T19:08:45.366Z,99849.34
2023-10-13T19:11:12.706Z,99847.13
2023-10-13T19:13:40.936Z,99838.69
2023-10-13T19:16:13.814Z,99839.63
2023-10-13T19:18:42.158Z,99852.66
2023-10-13T19:21:18.767Z,99852.28
2023-10-13T19:23:53.063Z,99844.88
2023-10-13T19:26:30.191Z,99855.91
2023-10-13T19:29:00.786Z,99851.34
2023-10-13T19:31:29.136Z,99853.47
2023-10-13T19:33:57.844Z,99854.47
2023-10-13T19:36:25.241Z,99856.94
2023-10-13T19:38:53.805Z,99854.38
2023-10-13T19:41:28.055Z,99848.63
2023-10-13T19:44:00.860Z,99850.47
2023-10-13T19:46:29.100Z,99853.16
2023-10-13T19:48:58.067Z,99852.34
2023-10-13T19:51:29.030Z,99851.03
2023-10-13T19:54:01.386Z,99854.38
2023-10-13T19:56:34.871Z,99851.84
2023-10-13T19:59:02.919Z,99845.28
2023-10-13T20:01:34.934Z,99851.94
2023-10-13T20:04:08.091Z,99854.44
2023-10-13T20:06:36.170Z,99842.91
2023-10-13T20:09:10.674Z,99841.37
2023-10-13T20:11:38.408Z,99844.97
2023-10-13T20:14:06.185Z,99836.06
2023-10-13T20:16:34.149Z,99843.34
2023-10-13T20:19:02.318Z,99833.59
2023-10-13T20:21:30.324Z,99836.16
2023-10-13T20:24:01.384Z,99833.50
2023-10-13T20:26:29.448Z,99835.19
2023-10-13T20:28:57.805Z,99830.09
2023-10-13T20:31:25.262Z,99835.03
2023-10-13T20:33:56.115Z,99838.47
2023-10-13T20:36:27.110Z,99836.09
2023-10-13T20:38:54.603Z,99834.56
2023-10-13T20:41:22.011Z,99831.06
2023-10-13T20:43:50.176Z,99836.31
2023-10-13T20:46:17.557Z,99831.66
2023-10-13T20:48:51.234Z,99833.97
2023-10-13T20:51:19.183Z,99821.41
2023-10-13T20:53:48.367Z,99832.66
2023-10-13T20:56:16.125Z,99829.38
2023-10-13T20:58:57.515Z,99823.97
2023-10-13T21:01:25.263Z,99823.88
2023-10-13T21:03:53.338Z,99825.97
2023-10-13T21:06:20.866Z,99816.09
2023-10-13T21:08:48.376Z,99823.00
2023-10-13T21:11:16.634Z,99829.25
2023-10-13T21:13:44.348Z,99819.16
2023-10-13T21:16:12.151Z,99816.09
2023-10-13T21:18:44.210Z,99812.78
2023-10-13T21:21:19.473Z,99814.09
2023-10-13T21:23:56.015Z,99815.06
2023-10-13T21:26:30.187Z,99811.00
2023-10-13T21:28:58.059Z,99814.44
2023-10-13T21:31:25.715Z,99800.53
2023-10-13T21:33:57.166Z,99806.84
2023-10-13T21:36:28.350Z,99798.78
2023-10-13T21:38:55.938Z,99802.56
2023-10-13T21:41:23.779Z,99800.97
2023-10-13T21:43:55.836Z,99795.72
2023-10-13T21:46:24.479Z,99794.19
2023-10-13T21:48:52.970Z,99791.75
2023-10-13T21:51:21.610Z,99788.63
2023-10-13T21:53:48.991Z,99790.34
2023-10-13T21:56:17.696Z,99793.03
2023-10-13T21:58:46.593Z,99792.12
2023-10-13T22:01:23.756Z,99790.81
2023-10-13T22:04:10.035Z,99788.47
2023-10-13T22:06:38.667Z,99793.59
2023-10-13T22:09:08.243Z,99791.97
2023-10-13T22:11:36.909Z,99787.34
2023-10-13T22:14:06.494Z,99788.81
2023-10-13T22:16:34.546Z,99783.91
2023-10-13T22:19:02.154Z,99785.13
2023-10-13T22:21:30.223Z,99776.75
2023-10-13T22:24:01.722Z,99775.34
2023-10-13T22:26:31.346Z,99781.63
2023-10-13T22:28:59.837Z,99768.19
2023-10-13T22:31:27.812Z,99774.19
2023-10-13T22:33:56.261Z,99777.22
2023-10-13T22:36:24.439Z,99778.59
2023-10-13T22:38:56.385Z,99775.66
2023-10-13T22:41:24.436Z,99769.09
2023-10-13T22:43:51.847Z,99771.84
2023-10-13T22:46:19.966Z,99778.66
2023-10-13T22:48:48.246Z,99773.88
2023-10-13T22:51:16.233Z,99780.16
2023-10-13T22:53:46.831Z,99780.75
2023-10-13T22:56:19.323Z,99781.56
2023-10-13T22:58:47.897Z,99774.59
2023-10-13T23:01:18.988Z,99785.66
2023-10-13T23:03:59.781Z,99781.19
2023-10-13T23:06:40.709Z,99775.88
2023-10-13T23:09:25.670Z,99782.03
2023-10-13T23:11:57.968Z,99769.75
2023-10-13T23:14:26.629Z,99767.81
2023-10-13T23:16:54.400Z,99757.47
2023-10-13T23:19:24.101Z,99757.75
2023-10-13T23:21:52.322Z,99749.34
2023-10-13T23:24:20.045Z,99756.63
2023-10-13T23:26:47.449Z,99749.50
2023-10-13T23:29:14.946Z,99745.69
2023-10-13T23:31:44.987Z,99745.84
2023-10-13T23:34:12.513Z,99744.03
2023-10-13T23:36:40.094Z,99746.31
2023-10-13T23:39:11.078Z,99748.47
2023-10-13T23:41:42.256Z,99749.91
2023-10-13T23:44:16.657Z,99743.16
2023-10-13T23:46:48.028Z,99743.91
2023-10-13T23:49:22.081Z,99732.56
2023-10-13T23:52:02.469Z,99730.28
2023-10-13T23:54:40.068Z,99721.13
2023-10-13T23:57:08.213Z,99717.56
2023-10-13T23:59:41.708Z,99719.94
